createdAt,value
2017-07-26T00:00:01.623Z,15.28
2017-07-26T00:01:01.590Z,15.28
2017-07-26T00:02:01.588Z,15.28
2017-07-26T00:03:01.590Z,15.29
2017-07-26T00:04:01.590Z,15.25
2017-07-26T00:05:01.594Z,15.39
2017-07-26T00:06:01.297Z,15.24
2017-07-26T00:07:01.292Z,15.36
2017-07-26T00:08:01.592Z,15.24
2017-07-26T00:09:01.293Z,15.28
2017-07-26T00:10:01.590Z,15.29
2017-07-26T00:11:01.589Z,15.36
2017-07-26T00:12:01.289Z,15.25
2017-07-26T00:13:01.586Z,15.27
2017-07-26T00:14:01.590Z,15.27
2017-07-26T00:15:01.599Z,15.24
2017-07-26T00:16:01.592Z,15.25
2017-07-26T00:17:01.592Z,15.29
2017-07-26T00:18:01.592Z,15.35
2017-07-26T00:19:01.594Z,15.22
2017-07-26T00:20:01.602Z,15.33
2017-07-26T00:21:01.589Z,15.24
2017-07-26T00:22:01.295Z,15.25
2017-07-26T00:23:01.590Z,15.25
2017-07-26T00:24:01.594Z,15.28
2017-07-26T00:25:01.588Z,15.24
2017-07-26T00:26:01.002Z,15.27
2017-07-26T00:27:01.597Z,15.21
2017-07-26T00:28:01.597Z,15.28
2017-07-26T00:29:01.604Z,15.37
2017-07-26T00:30:03.590Z,15.35
2017-07-26T00:31:01.591Z,15.37
2017-07-26T00:32:01.594Z,15.4
2017-07-26T00:33:01.594Z,15.39
2017-07-26T00:34:01.291Z,15.36
2017-07-26T00:35:01.593Z,15.36
2017-07-26T00:36:01.589Z,15.39
2017-07-26T00:37:01.592Z,15.37
2017-07-26T00:38:01.292Z,15.35
2017-07-26T00:39:01.593Z,15.36
2017-07-26T00:40:01.592Z,15.39
2017-07-26T00:41:01.597Z,15.36
2017-07-26T00:42:01.597Z,15.33
2017-07-26T00:43:01.319Z,15.37
2017-07-26T00:44:01.598Z,15.37
2017-07-26T00:45:03.239Z,15.36
2017-07-26T00:46:01.598Z,15.4
2017-07-26T00:47:01.589Z,15.37
2017-07-26T00:48:01.596Z,15.35
2017-07-26T00:49:01.591Z,15.33
2017-07-26T00:50:01.915Z,15.35
2017-07-26T00:51:01.591Z,15.35
2017-07-26T00:52:01.593Z,15.39
2017-07-26T00:53:01.595Z,15.35
2017-07-26T00:54:01.589Z,15.37
2017-07-26T00:55:01.311Z,15.36
2017-07-26T00:56:01.292Z,15.44
2017-07-26T00:57:01.590Z,15.39
2017-07-26T00:58:01.594Z,15.37
2017-07-26T00:59:01.595Z,15.42
2017-07-26T01:00:01.593Z,15.43
2017-07-26T01:01:01.594Z,15.39
2017-07-26T01:02:01.297Z,15.49
2017-07-26T01:03:01.291Z,15.46
2017-07-26T01:04:01.593Z,15.4
2017-07-26T01:05:01.597Z,15.43
2017-07-26T01:06:01.591Z,15.42
2017-07-26T01:07:01.590Z,15.44
2017-07-26T01:08:01.595Z,15.43
2017-07-26T01:09:01.597Z,15.42
2017-07-26T01:10:01.589Z,15.42
2017-07-26T01:11:01.594Z,15.43
2017-07-26T01:12:01.595Z,15.39
2017-07-26T01:13:01.595Z,15.44
2017-07-26T01:14:01.293Z,15.46
2017-07-26T01:15:00.987Z,15.4
2017-07-26T01:16:01.293Z,15.47
2017-07-26T01:17:01.598Z,15.44
2017-07-26T01:18:01.603Z,15.42
2017-07-26T01:19:01.590Z,15.44
2017-07-26T01:20:01.288Z,15.47
2017-07-26T01:21:01.288Z,15.4
2017-07-26T01:22:01.597Z,15.39
2017-07-26T01:23:01.595Z,15.47
2017-07-26T01:24:01.601Z,15.44
2017-07-26T01:25:01.602Z,15.52
2017-07-26T01:26:01.296Z,15.42
2017-07-26T01:27:01.295Z,15.49
2017-07-26T01:28:01.283Z,15.44
2017-07-26T01:29:01.285Z,15.46
2017-07-26T01:30:01.602Z,15.44
2017-07-26T01:31:01.606Z,15.4
2017-07-26T01:32:01.604Z,15.49
2017-07-26T01:33:01.590Z,15.43
2017-07-26T01:34:01.593Z,15.46
2017-07-26T01:35:01.601Z,15.49
2017-07-26T01:36:01.598Z,15.44
2017-07-26T01:37:01.609Z,15.42
2017-07-26T01:38:01.595Z,15.44
2017-07-26T01:39:01.298Z,15.46
2017-07-26T01:40:01.594Z,15.39
2017-07-26T01:41:01.289Z,15.35
2017-07-26T01:42:01.597Z,15.39
2017-07-26T01:43:01.593Z,15.37
2017-07-26T01:44:01.602Z,15.39
2017-07-26T01:45:01.596Z,15.43
2017-07-26T01:46:01.649Z,15.36
2017-07-26T01:47:01.590Z,15.37
2017-07-26T01:48:01.597Z,15.42
2017-07-26T01:49:01.597Z,15.39
2017-07-26T01:50:01.601Z,15.39
2017-07-26T01:51:01.597Z,15.36
2017-07-26T01:52:01.607Z,15.43
2017-07-26T01:53:01.601Z,15.43
2017-07-26T01:54:01.598Z,15.46
2017-07-26T01:55:01.593Z,15.36
2017-07-26T01:56:01.589Z,15.44
2017-07-26T01:57:01.599Z,15.43
2017-07-26T01:58:01.603Z,15.39
2017-07-26T01:59:01.590Z,15.36
2017-07-26T02:00:01.589Z,15.42
2017-07-26T02:01:05.957Z,15.44
2017-07-26T02:02:01.597Z,15.47
2017-07-26T02:03:01.292Z,15.42
2017-07-26T02:04:01.591Z,15.43
2017-07-26T02:05:01.594Z,15.49
2017-07-26T02:06:01.596Z,15.39
2017-07-26T02:07:01.600Z,15.43
2017-07-26T02:08:01.597Z,15.49
2017-07-26T02:09:01.293Z,15.43
2017-07-26T02:10:01.593Z,15.42
2017-07-26T02:11:01.591Z,15.52
2017-07-26T02:12:01.295Z,15.36
2017-07-26T02:13:01.594Z,15.49
2017-07-26T02:14:01.605Z,15.39
2017-07-26T02:15:01.597Z,15.33
2017-07-26T02:16:01.688Z,15.39
2017-07-26T02:17:01.600Z,15.4
2017-07-26T02:18:01.598Z,15.29
2017-07-26T02:19:01.601Z,15.35
2017-07-26T02:20:01.599Z,15.33
2017-07-26T02:21:01.597Z,15.28
2017-07-26T02:22:01.289Z,15.35
2017-07-26T02:23:01.589Z,15.36
2017-07-26T02:24:01.599Z,15.22
2017-07-26T02:25:01.592Z,15.35
2017-07-26T02:26:01.607Z,15.28
2017-07-26T02:27:01.595Z,15.33
2017-07-26T02:28:01.290Z,15.33
2017-07-26T02:29:01.594Z,15.39
2017-07-26T02:30:01.593Z,15.36
2017-07-26T02:31:01.591Z,15.31
2017-07-26T02:32:01.590Z,15.39
2017-07-26T02:33:01.594Z,15.35
2017-07-26T02:34:01.594Z,15.39
2017-07-26T02:35:01.286Z,15.36
2017-07-26T02:36:01.637Z,15.42
2017-07-26T02:37:01.589Z,15.37
2017-07-26T02:38:01.598Z,15.37
2017-07-26T02:39:01.599Z,15.42
2017-07-26T02:40:01.292Z,15.39
2017-07-26T02:41:01.597Z,15.43
2017-07-26T02:42:01.290Z,15.37
2017-07-26T02:43:01.616Z,15.36
2017-07-26T02:44:01.594Z,15.43
2017-07-26T02:45:01.594Z,15.39
2017-07-26T02:46:01.288Z,15.43
2017-07-26T02:47:01.592Z,15.36
2017-07-26T02:48:01.601Z,15.43
2017-07-26T02:49:01.601Z,15.43
2017-07-26T02:50:01.848Z,15.46
2017-07-26T02:51:01.288Z,15.46
2017-07-26T02:52:01.590Z,15.46
2017-07-26T02:53:01.589Z,15.52
2017-07-26T02:54:01.600Z,15.42
2017-07-26T02:55:01.594Z,15.46
2017-07-26T02:56:01.589Z,15.49
2017-07-26T02:57:01.289Z,15.42
2017-07-26T02:58:01.593Z,15.49
2017-07-26T02:59:01.592Z,15.39
2017-07-26T03:00:01.591Z,15.39
2017-07-26T03:01:01.594Z,15.37
2017-07-26T03:02:02.038Z,15.33
2017-07-26T03:03:01.287Z,15.42
2017-07-26T03:04:01.285Z,15.37
2017-07-26T03:05:01.589Z,15.37
2017-07-26T03:06:01.851Z,15.4
2017-07-26T03:07:01.285Z,15.37
2017-07-26T03:08:01.588Z,15.33
2017-07-26T03:09:01.605Z,15.35
2017-07-26T03:10:01.592Z,15.29
2017-07-26T03:11:01.585Z,15.22
2017-07-26T03:12:01.295Z,15.31
2017-07-26T03:13:01.586Z,15.21
2017-07-26T03:14:01.593Z,15.29
2017-07-26T03:15:01.592Z,15.22
2017-07-26T03:16:01.292Z,15.21
2017-07-26T03:17:02.440Z,15.22
2017-07-26T03:18:01.595Z,15.18
2017-07-26T03:19:01.288Z,15.18
2017-07-26T03:20:01.595Z,15.24
2017-07-26T03:21:01.597Z,15.22
2017-07-26T03:22:01.591Z,15.27
2017-07-26T03:23:01.592Z,15.24
2017-07-26T03:24:01.593Z,15.25
2017-07-26T03:25:01.591Z,15.19
2017-07-26T03:26:01.285Z,15.21
2017-07-26T03:27:01.595Z,15.21
2017-07-26T03:28:01.597Z,15.11
2017-07-26T03:29:01.592Z,15.25
2017-07-26T03:30:01.298Z,15.15
2017-07-26T03:31:01.606Z,15.19
2017-07-26T03:32:02.438Z,15.09
2017-07-26T03:33:01.586Z,15.03
2017-07-26T03:34:01.587Z,15.18
2017-07-26T03:35:01.588Z,15.15
2017-07-26T03:36:01.588Z,15.06
2017-07-26T03:37:01.590Z,15.11
2017-07-26T03:38:01.590Z,15.06
2017-07-26T03:39:01.285Z,15.04
2017-07-26T03:40:01.594Z,15.03
2017-07-26T03:41:01.599Z,15.02
2017-07-26T03:42:01.630Z,15.1
2017-07-26T03:43:01.589Z,15.06
2017-07-26T03:44:01.594Z,15.04
2017-07-26T03:45:01.593Z,15.17
2017-07-26T03:46:01.299Z,15.1
2017-07-26T03:47:02.701Z,15.17
2017-07-26T03:48:01.602Z,15.15
2017-07-26T03:49:01.594Z,15.1
2017-07-26T03:50:01.295Z,15.18
2017-07-26T03:51:01.593Z,15.22
2017-07-26T03:52:01.594Z,15.22
2017-07-26T03:53:01.594Z,15.25
2017-07-26T03:54:01.602Z,15.24
2017-07-26T03:55:01.596Z,15.22
2017-07-26T03:56:01.596Z,15.24
2017-07-26T03:57:00.997Z,15.19
2017-07-26T03:58:01.589Z,15.15
2017-07-26T03:59:01.585Z,15.19
2017-07-26T04:00:01.596Z,15.19
2017-07-26T04:01:01.289Z,15.09
2017-07-26T04:02:01.585Z,15.15
2017-07-26T04:03:01.596Z,15.22
2017-07-26T04:04:01.589Z,15.25
2017-07-26T04:05:01.586Z,15.22
2017-07-26T04:06:01.593Z,15.24
2017-07-26T04:07:01.592Z,15.28
2017-07-26T04:08:01.604Z,15.27
2017-07-26T04:09:01.594Z,15.27
2017-07-26T04:10:01.286Z,15.31
2017-07-26T04:11:01.592Z,15.35
2017-07-26T04:12:01.586Z,15.31
2017-07-26T04:13:01.588Z,15.28
2017-07-26T04:14:01.587Z,15.24
2017-07-26T04:15:01.601Z,15.27
2017-07-26T04:16:01.593Z,15.39
2017-07-26T04:17:01.588Z,15.37
2017-07-26T04:18:01.587Z,15.39
2017-07-26T04:19:01.289Z,15.35
2017-07-26T04:20:01.588Z,15.39
2017-07-26T04:21:01.288Z,15.4
2017-07-26T04:22:01.594Z,15.52
2017-07-26T04:23:01.590Z,15.47
2017-07-26T04:24:01.292Z,15.44
2017-07-26T04:25:01.590Z,15.44
2017-07-26T04:26:01.588Z,15.42
2017-07-26T04:27:01.590Z,15.49
2017-07-26T04:28:01.591Z,15.49
2017-07-26T04:29:01.587Z,15.54
2017-07-26T04:30:01.595Z,15.54
2017-07-26T04:31:01.595Z,15.58
2017-07-26T04:32:01.600Z,15.57
2017-07-26T04:33:04.949Z,15.54
2017-07-26T04:34:01.597Z,15.61
2017-07-26T04:35:01.596Z,15.55
2017-07-26T04:36:01.593Z,15.59
2017-07-26T04:37:01.296Z,15.59
2017-07-26T04:38:01.301Z,15.58
2017-07-26T04:39:01.004Z,15.62
2017-07-26T04:40:01.592Z,15.64
2017-07-26T04:41:01.605Z,15.65
2017-07-26T04:42:01.597Z,15.65
2017-07-26T04:43:01.592Z,15.61
2017-07-26T04:44:01.596Z,15.58
2017-07-26T04:45:01.596Z,15.62
2017-07-26T04:46:01.306Z,15.7
2017-07-26T04:47:01.297Z,15.68
2017-07-26T04:48:01.602Z,15.61
2017-07-26T04:49:01.595Z,15.75
2017-07-26T04:50:01.605Z,15.62
2017-07-26T04:51:01.298Z,15.76
2017-07-26T04:52:01.598Z,15.73
2017-07-26T04:53:01.298Z,15.59
2017-07-26T04:54:01.603Z,15.64
2017-07-26T04:55:01.301Z,15.61
2017-07-26T04:56:01.598Z,15.61
2017-07-26T04:57:01.606Z,15.7
2017-07-26T04:58:01.598Z,15.68
2017-07-26T04:59:01.308Z,15.68
2017-07-26T05:00:01.615Z,15.75
2017-07-26T05:01:01.609Z,15.62
2017-07-26T05:02:01.612Z,15.7
2017-07-26T05:03:01.607Z,15.65
2017-07-26T05:04:01.300Z,15.65
2017-07-26T05:05:01.602Z,15.59
2017-07-26T05:06:01.602Z,15.65
2017-07-26T05:07:01.604Z,15.68
2017-07-26T05:08:01.304Z,15.76
2017-07-26T05:09:01.609Z,15.73
2017-07-26T05:10:01.304Z,15.76
2017-07-26T05:11:01.018Z,15.76
2017-07-26T05:12:01.622Z,15.84
2017-07-26T05:13:01.306Z,15.76
2017-07-26T05:14:01.606Z,15.75
2017-07-26T05:15:01.319Z,15.79
2017-07-26T05:16:01.609Z,15.73
2017-07-26T05:17:01.608Z,15.8
2017-07-26T05:18:01.615Z,15.72
2017-07-26T05:19:01.666Z,15.73
2017-07-26T05:20:01.612Z,15.83
2017-07-26T05:21:01.633Z,15.8
2017-07-26T05:22:01.626Z,15.79
2017-07-26T05:23:01.611Z,15.83
2017-07-26T05:24:01.612Z,15.79
2017-07-26T05:25:01.611Z,15.86
2017-07-26T05:26:01.312Z,15.83
2017-07-26T05:27:01.619Z,15.82
2017-07-26T05:28:01.613Z,15.83
2017-07-26T05:29:01.617Z,15.8
2017-07-26T05:30:01.315Z,15.82
2017-07-26T05:31:01.614Z,15.83
2017-07-26T05:32:01.621Z,15.88
2017-07-26T05:33:01.619Z,15.8
2017-07-26T05:34:03.436Z,15.82
2017-07-26T05:35:01.621Z,15.8
2017-07-26T05:36:01.638Z,15.75
2017-07-26T05:37:01.621Z,15.76
2017-07-26T05:38:01.620Z,15.8
2017-07-26T05:39:01.623Z,15.83
2017-07-26T05:40:01.624Z,15.83
2017-07-26T05:41:01.321Z,15.83
2017-07-26T05:42:01.623Z,15.91
2017-07-26T05:43:01.624Z,15.9
2017-07-26T05:44:01.642Z,15.9
2017-07-26T05:45:01.628Z,15.97
2017-07-26T05:46:01.327Z,16
2017-07-26T05:47:01.637Z,16.04
2017-07-26T05:48:01.633Z,16.04
2017-07-26T05:49:01.680Z,16.01
2017-07-26T05:50:01.628Z,15.97
2017-07-26T05:51:01.627Z,16.04
2017-07-26T05:52:01.636Z,16.04
2017-07-26T05:53:01.629Z,16.05
2017-07-26T05:54:01.637Z,16.1
2017-07-26T05:55:01.327Z,16.09
2017-07-26T05:56:01.629Z,16.04
2017-07-26T05:57:01.633Z,16.09
2017-07-26T05:58:01.633Z,15.98
2017-07-26T05:59:01.657Z,16.04
2017-07-26T06:00:01.711Z,16.08
2017-07-26T06:01:01.718Z,16.08
2017-07-26T06:02:01.630Z,16.09
2017-07-26T06:03:01.640Z,16.08
2017-07-26T06:04:02.338Z,16.08
2017-07-26T06:05:01.636Z,16.09
2017-07-26T06:06:01.636Z,16.04
2017-07-26T06:07:01.637Z,16.04
2017-07-26T06:08:01.641Z,16.1
2017-07-26T06:09:01.646Z,16.01
2017-07-26T06:10:01.647Z,16.09
2017-07-26T06:11:01.662Z,16.04
2017-07-26T06:12:01.639Z,16.08
2017-07-26T06:13:01.644Z,16.04
2017-07-26T06:14:01.644Z,16.08
2017-07-26T06:15:01.642Z,16.09
2017-07-26T06:16:01.642Z,16.05
2017-07-26T06:17:01.645Z,16.04
2017-07-26T06:18:01.645Z,16.1
2017-07-26T06:19:01.643Z,16.04
2017-07-26T06:20:01.646Z,16.09
2017-07-26T06:21:01.649Z,16.09
2017-07-26T06:22:01.646Z,16.1
2017-07-26T06:23:01.646Z,16.15
2017-07-26T06:24:01.666Z,16.04
2017-07-26T06:25:01.669Z,16.04
2017-07-26T06:26:01.654Z,16.05
2017-07-26T06:27:01.651Z,16.13
2017-07-26T06:28:01.385Z,16.08
2017-07-26T06:29:01.652Z,16.12
2017-07-26T06:30:01.656Z,16.13
2017-07-26T06:31:01.664Z,16.1
2017-07-26T06:32:01.656Z,16.1
2017-07-26T06:33:01.671Z,16.13
2017-07-26T06:34:01.660Z,16.1
2017-07-26T06:35:01.670Z,16.12
2017-07-26T06:36:01.656Z,16.17
2017-07-26T06:37:01.655Z,16.17
2017-07-26T06:38:01.678Z,16.17
2017-07-26T06:39:01.749Z,16.15
2017-07-26T06:40:01.669Z,16.15
2017-07-26T06:41:01.664Z,16.17
2017-07-26T06:42:01.671Z,16.17
2017-07-26T06:43:01.668Z,16.17
2017-07-26T06:44:01.664Z,16.16
2017-07-26T06:45:01.666Z,16.17
2017-07-26T06:46:01.676Z,16.09
2017-07-26T06:47:01.365Z,16.08
2017-07-26T06:48:01.666Z,16.16
2017-07-26T06:49:01.667Z,16.05
2017-07-26T06:50:01.716Z,16.05
2017-07-26T06:51:01.668Z,16.09
2017-07-26T06:52:01.676Z,16.16
2017-07-26T06:53:01.666Z,16.08
2017-07-26T06:54:01.678Z,16.1
2017-07-26T06:55:01.680Z,16
2017-07-26T06:56:01.684Z,16.08
2017-07-26T06:57:01.685Z,16
2017-07-26T06:58:01.669Z,15.98
2017-07-26T06:59:01.682Z,15.92
2017-07-26T07:00:01.380Z,16
2017-07-26T07:01:01.679Z,16.01
2017-07-26T07:02:01.688Z,15.88
2017-07-26T07:03:01.677Z,15.84
2017-07-26T07:04:01.685Z,15.83
2017-07-26T07:05:04.529Z,15.77
2017-07-26T07:06:01.687Z,15.79
2017-07-26T07:07:01.691Z,15.73
2017-07-26T07:08:01.381Z,15.77
2017-07-26T07:09:01.686Z,15.7
2017-07-26T07:10:01.688Z,15.79
2017-07-26T07:11:01.685Z,15.75
2017-07-26T07:12:01.400Z,15.76
2017-07-26T07:13:01.435Z,15.72
2017-07-26T07:14:01.687Z,15.8
2017-07-26T07:15:01.389Z,15.86
2017-07-26T07:16:01.390Z,15.83
2017-07-26T07:17:01.709Z,15.86
2017-07-26T07:18:01.406Z,15.9
2017-07-26T07:19:01.682Z,15.91
2017-07-26T07:20:01.747Z,16
2017-07-26T07:21:01.680Z,16.01
2017-07-26T07:22:01.686Z,16
2017-07-26T07:23:01.694Z,16.01
2017-07-26T07:24:01.684Z,16.05
2017-07-26T07:25:01.697Z,16.17
2017-07-26T07:26:01.394Z,16.24
2017-07-26T07:27:01.687Z,16.32
2017-07-26T07:28:01.700Z,16.26
2017-07-26T07:29:01.693Z,16.33
2017-07-26T07:30:01.701Z,16.38
2017-07-26T07:31:01.697Z,16.47
2017-07-26T07:32:01.698Z,16.58
2017-07-26T07:33:01.711Z,16.57
2017-07-26T07:34:01.714Z,16.68
2017-07-26T07:35:06.962Z,16.68
2017-07-26T07:36:01.707Z,16.75
2017-07-26T07:37:01.701Z,16.69
2017-07-26T07:38:01.706Z,16.71
2017-07-26T07:39:01.701Z,16.75
2017-07-26T07:40:01.399Z,16.71
2017-07-26T07:41:01.703Z,16.69
2017-07-26T07:42:01.709Z,16.68
2017-07-26T07:43:01.710Z,16.71
2017-07-26T07:44:01.718Z,16.72
2017-07-26T07:45:01.705Z,16.75
2017-07-26T07:46:01.416Z,16.71
2017-07-26T07:47:01.724Z,16.74
2017-07-26T07:48:01.408Z,16.74
2017-07-26T07:49:01.707Z,16.74
2017-07-26T07:50:01.722Z,16.75
2017-07-26T07:51:01.408Z,16.78
2017-07-26T07:52:01.723Z,16.75
2017-07-26T07:53:01.714Z,16.83
2017-07-26T07:54:01.721Z,16.74
2017-07-26T07:55:01.724Z,16.75
2017-07-26T07:56:01.722Z,16.71
2017-07-26T07:57:01.736Z,16.54
2017-07-26T07:58:01.421Z,16.61
2017-07-26T07:59:01.728Z,16.64
2017-07-26T08:00:01.418Z,16.58
2017-07-26T08:01:01.198Z,16.57
2017-07-26T08:02:01.724Z,16.57
2017-07-26T08:03:01.724Z,16.54
2017-07-26T08:04:01.133Z,16.49
2017-07-26T08:05:01.747Z,16.5
2017-07-26T08:06:05.979Z,16.5
2017-07-26T08:07:01.734Z,16.53
2017-07-26T08:08:01.428Z,16.51
2017-07-26T08:09:01.425Z,16.6
2017-07-26T08:10:01.729Z,16.53
2017-07-26T08:11:01.428Z,16.57
2017-07-26T08:12:01.729Z,16.6
2017-07-26T08:13:01.739Z,16.56
2017-07-26T08:14:01.737Z,16.6
2017-07-26T08:15:01.751Z,16.56
2017-07-26T08:16:01.743Z,16.5
2017-07-26T08:17:01.436Z,16.54
2017-07-26T08:18:01.742Z,16.49
2017-07-26T08:19:01.449Z,16.58
2017-07-26T08:20:01.740Z,16.65
2017-07-26T08:21:01.742Z,16.51
2017-07-26T08:22:01.736Z,16.65
2017-07-26T08:23:01.744Z,16.71
2017-07-26T08:24:01.745Z,16.74
2017-07-26T08:25:01.744Z,16.76
2017-07-26T08:26:01.748Z,16.84
2017-07-26T08:27:01.742Z,16.76
2017-07-26T08:28:01.755Z,16.81
2017-07-26T08:29:01.455Z,16.71
2017-07-26T08:30:01.751Z,16.75
2017-07-26T08:31:01.749Z,16.68
2017-07-26T08:32:01.748Z,16.74
2017-07-26T08:33:01.753Z,16.66
2017-07-26T08:34:01.757Z,16.6
2017-07-26T08:35:01.756Z,16.61
2017-07-26T08:36:01.759Z,16.64
2017-07-26T08:37:01.451Z,16.58
2017-07-26T08:38:01.759Z,16.57
2017-07-26T08:39:01.471Z,16.56
2017-07-26T08:40:01.773Z,16.6
2017-07-26T08:41:01.763Z,16.58
2017-07-26T08:42:01.463Z,16.6
2017-07-26T08:43:01.762Z,16.6
2017-07-26T08:44:01.764Z,16.57
2017-07-26T08:45:01.769Z,16.56
2017-07-26T08:46:01.468Z,16.65
2017-07-26T08:47:01.466Z,16.61
2017-07-26T08:48:01.767Z,16.53
2017-07-26T08:49:01.765Z,16.5
2017-07-26T08:50:01.770Z,16.53
2017-07-26T08:51:01.779Z,16.46
2017-07-26T08:52:01.831Z,16.47
2017-07-26T08:53:01.777Z,16.47
2017-07-26T08:54:01.782Z,16.49
2017-07-26T08:55:01.774Z,16.39
2017-07-26T08:56:01.474Z,16.43
2017-07-26T08:57:01.781Z,16.46
2017-07-26T08:58:01.778Z,16.49
2017-07-26T08:59:01.783Z,16.36
2017-07-26T09:00:01.786Z,16.38
2017-07-26T09:01:01.789Z,16.29
2017-07-26T09:02:01.784Z,16.32
2017-07-26T09:03:01.485Z,16.23
2017-07-26T09:04:01.790Z,16.35
2017-07-26T09:05:01.790Z,16.23
2017-07-26T09:06:01.785Z,16.31
2017-07-26T09:07:07.042Z,16.31
2017-07-26T09:08:01.795Z,16.26
2017-07-26T09:09:01.788Z,16.26
2017-07-26T09:10:01.488Z,16.2
2017-07-26T09:11:01.799Z,16.28
2017-07-26T09:12:01.791Z,16.15
2017-07-26T09:13:01.484Z,16.2
2017-07-26T09:14:01.792Z,16.24
2017-07-26T09:15:01.802Z,16.17
2017-07-26T09:16:01.795Z,16.16
2017-07-26T09:17:01.533Z,16.29
2017-07-26T09:18:01.793Z,16.29
2017-07-26T09:19:01.806Z,16.28
2017-07-26T09:20:01.797Z,16.28
2017-07-26T09:21:01.794Z,16.26
2017-07-26T09:22:01.800Z,16.33
2017-07-26T09:23:01.795Z,16.36
2017-07-26T09:24:01.797Z,16.35
2017-07-26T09:25:01.492Z,16.41
2017-07-26T09:26:01.810Z,16.46
2017-07-26T09:27:01.795Z,16.46
2017-07-26T09:28:01.796Z,16.41
2017-07-26T09:29:01.801Z,16.42
2017-07-26T09:30:01.517Z,16.41
2017-07-26T09:31:01.495Z,16.32
2017-07-26T09:32:01.808Z,16.35
2017-07-26T09:33:01.801Z,16.31
2017-07-26T09:34:01.499Z,16.24
2017-07-26T09:35:01.803Z,16.12
2017-07-26T09:36:01.507Z,16.2
2017-07-26T09:37:01.512Z,16.15
2017-07-26T09:38:01.802Z,16.15
2017-07-26T09:39:01.811Z,16.21
2017-07-26T09:40:01.507Z,16.2
2017-07-26T09:41:01.807Z,16.13
2017-07-26T09:42:01.810Z,16.17
2017-07-26T09:43:01.808Z,16.2
2017-07-26T09:44:01.806Z,16.15
2017-07-26T09:45:01.807Z,16.17
2017-07-26T09:46:01.507Z,16.15
2017-07-26T09:47:01.814Z,16.2
2017-07-26T09:48:01.812Z,16.17
2017-07-26T09:49:01.811Z,16.21
2017-07-26T09:50:01.811Z,16.12
2017-07-26T09:51:01.810Z,16.23
2017-07-26T09:52:01.542Z,16.15
2017-07-26T09:53:01.558Z,16.16
2017-07-26T09:54:01.812Z,16.17
2017-07-26T09:55:01.814Z,16.16
2017-07-26T09:56:01.841Z,16.15
2017-07-26T09:57:01.511Z,16.16
2017-07-26T09:58:01.817Z,16.2
2017-07-26T09:59:01.824Z,16.16
2017-07-26T10:00:01.824Z,16.15
2017-07-26T10:01:01.817Z,16.15
2017-07-26T10:02:01.833Z,16.15
2017-07-26T10:03:01.820Z,16.23
2017-07-26T10:04:01.523Z,16.33
2017-07-26T10:05:01.823Z,16.29
2017-07-26T10:06:01.823Z,16.26
2017-07-26T10:07:01.817Z,16.33
2017-07-26T10:08:02.321Z,16.35
2017-07-26T10:09:01.523Z,16.38
2017-07-26T10:10:01.522Z,16.39
2017-07-26T10:11:02.044Z,16.43
2017-07-26T10:12:01.859Z,16.47
2017-07-26T10:13:01.823Z,16.51
2017-07-26T10:14:01.558Z,16.53
2017-07-26T10:15:01.833Z,16.56
2017-07-26T10:16:01.825Z,16.54
2017-07-26T10:17:01.835Z,16.6
2017-07-26T10:18:01.524Z,16.58
2017-07-26T10:19:01.830Z,16.61
2017-07-26T10:20:01.829Z,16.64
2017-07-26T10:21:01.830Z,16.68
2017-07-26T10:22:01.534Z,16.66
2017-07-26T10:23:01.881Z,16.68
2017-07-26T10:24:01.847Z,16.76
2017-07-26T10:25:01.835Z,16.78
2017-07-26T10:26:01.850Z,16.89
2017-07-26T10:27:01.842Z,16.79
2017-07-26T10:28:01.844Z,16.89
2017-07-26T10:29:01.553Z,16.81
2017-07-26T10:30:01.845Z,16.91
2017-07-26T10:31:01.845Z,16.89
2017-07-26T10:32:01.855Z,16.91
2017-07-26T10:33:01.848Z,17.04
2017-07-26T10:34:01.862Z,17.14
2017-07-26T10:35:01.866Z,17.15
2017-07-26T10:36:01.554Z,17.11
2017-07-26T10:37:01.553Z,17.19
2017-07-26T10:38:02.080Z,17.3
2017-07-26T10:39:01.849Z,17.3
2017-07-26T10:40:01.860Z,17.29
2017-07-26T10:41:01.854Z,17.29
2017-07-26T10:42:01.560Z,17.33
2017-07-26T10:43:01.859Z,17.31
2017-07-26T10:44:01.862Z,17.38
2017-07-26T10:45:01.866Z,17.36
2017-07-26T10:46:01.867Z,17.39
2017-07-26T10:47:01.564Z,17.45
2017-07-26T10:48:01.873Z,17.42
2017-07-26T10:49:01.867Z,17.38
2017-07-26T10:50:01.571Z,17.27
2017-07-26T10:51:01.870Z,17.23
2017-07-26T10:52:01.870Z,17.24
2017-07-26T10:53:05.331Z,17.3
2017-07-26T10:54:01.878Z,17.19
2017-07-26T10:55:01.875Z,17.3
2017-07-26T10:56:01.876Z,17.36
2017-07-26T10:57:01.888Z,17.33
2017-07-26T10:58:01.888Z,17.33
2017-07-26T10:59:01.889Z,17.34
2017-07-26T11:00:01.894Z,17.33
2017-07-26T11:01:01.583Z,17.3
2017-07-26T11:02:01.893Z,17.33
2017-07-26T11:03:01.894Z,17.34
2017-07-26T11:04:01.893Z,17.33
2017-07-26T11:05:01.589Z,17.39
2017-07-26T11:06:01.589Z,17.39
2017-07-26T11:07:01.902Z,17.36
2017-07-26T11:08:01.898Z,17.49
2017-07-26T11:09:01.893Z,17.48
2017-07-26T11:10:01.896Z,17.51
2017-07-26T11:11:01.899Z,17.56
2017-07-26T11:12:01.907Z,17.57
2017-07-26T11:13:01.902Z,17.54
2017-07-26T11:14:01.601Z,17.6
2017-07-26T11:15:01.625Z,17.65
2017-07-26T11:16:01.920Z,17.59
2017-07-26T11:17:01.918Z,17.63
2017-07-26T11:18:01.924Z,17.7
2017-07-26T11:19:01.921Z,17.71
2017-07-26T11:20:01.619Z,17.78
2017-07-26T11:21:01.930Z,17.71
2017-07-26T11:22:01.927Z,17.79
2017-07-26T11:23:01.617Z,17.8
2017-07-26T11:24:01.376Z,17.8
2017-07-26T11:25:01.621Z,17.82
2017-07-26T11:26:01.631Z,17.82
2017-07-26T11:27:01.947Z,17.87
2017-07-26T11:28:01.935Z,17.94
2017-07-26T11:29:01.636Z,17.87
2017-07-26T11:30:01.637Z,17.86
2017-07-26T11:31:01.331Z,17.92
2017-07-26T11:32:01.980Z,17.89
2017-07-26T11:33:01.950Z,17.9
2017-07-26T11:34:01.336Z,17.89
2017-07-26T11:35:01.336Z,17.98
2017-07-26T11:36:01.642Z,17.87
2017-07-26T11:37:01.655Z,17.9
2017-07-26T11:38:01.945Z,17.95
2017-07-26T11:39:02.317Z,18
2017-07-26T11:40:01.951Z,18.03
2017-07-26T11:41:01.957Z,18.08
2017-07-26T11:42:01.962Z,18.04
2017-07-26T11:43:01.956Z,18.15
2017-07-26T11:44:01.968Z,18.13
2017-07-26T11:45:01.973Z,18.16
2017-07-26T11:46:01.973Z,18.08
2017-07-26T11:47:01.971Z,18.07
2017-07-26T11:48:01.992Z,18.23
2017-07-26T11:49:01.973Z,18.22
2017-07-26T11:50:01.991Z,18.25
2017-07-26T11:51:01.978Z,18.29
2017-07-26T11:52:01.977Z,18.2
2017-07-26T11:53:01.991Z,18.23
2017-07-26T11:54:05.435Z,18.2
2017-07-26T11:55:01.983Z,18.22
2017-07-26T11:56:01.998Z,18.28
2017-07-26T11:57:01.991Z,18.1
2017-07-26T11:58:01.995Z,18.19
2017-07-26T11:59:01.993Z,18.04
2017-07-26T12:00:01.998Z,18.04
2017-07-26T12:01:02.229Z,18.07
2017-07-26T12:02:04.165Z,18.05
2017-07-26T12:03:04.677Z,18.08
2017-07-26T12:04:02.139Z,18.03
2017-07-26T12:05:03.596Z,18.11
2017-07-26T12:06:04.492Z,18.1
2017-07-26T12:07:04.129Z,18.03
2017-07-26T12:08:02.063Z,18.04
2017-07-26T12:09:03.087Z,18.04
2017-07-26T12:10:01.865Z,18.03
2017-07-26T12:11:03.689Z,18.03
2017-07-26T12:12:03.475Z,18
2017-07-26T12:13:04.928Z,18
2017-07-26T12:14:05.025Z,18.08
2017-07-26T12:15:03.487Z,18.1
2017-07-26T12:16:04.098Z,18.18
2017-07-26T12:17:01.722Z,18.13
2017-07-26T12:18:02.025Z,18.2
2017-07-26T12:19:02.039Z,18.2
2017-07-26T12:20:02.033Z,18.1
2017-07-26T12:21:01.734Z,18.05
2017-07-26T12:22:01.729Z,18.01
2017-07-26T12:23:02.040Z,18.08
2017-07-26T12:24:02.033Z,18.03
2017-07-26T12:25:01.786Z,17.92
2017-07-26T12:26:01.740Z,17.92
2017-07-26T12:27:02.041Z,17.95
2017-07-26T12:28:02.050Z,17.83
2017-07-26T12:29:02.042Z,17.92
2017-07-26T12:30:02.051Z,17.92
2017-07-26T12:31:01.750Z,17.97
2017-07-26T12:32:01.772Z,17.95
2017-07-26T12:33:02.053Z,17.92
2017-07-26T12:34:02.069Z,17.89
2017-07-26T12:35:02.055Z,17.86
2017-07-26T12:36:02.060Z,17.82
2017-07-26T12:37:01.775Z,17.76
2017-07-26T12:38:02.074Z,17.78
2017-07-26T12:39:02.072Z,17.78
2017-07-26T12:40:03.970Z,17.76
2017-07-26T12:41:02.079Z,17.92
2017-07-26T12:42:02.073Z,18.05
2017-07-26T12:43:02.075Z,18.04
2017-07-26T12:44:01.780Z,18.13
2017-07-26T12:45:02.087Z,18.31
2017-07-26T12:46:02.078Z,18.47
2017-07-26T12:47:02.085Z,18.73
2017-07-26T12:48:02.079Z,18.7
2017-07-26T12:49:02.097Z,18.73
2017-07-26T12:50:01.789Z,18.83
2017-07-26T12:51:02.110Z,18.81
2017-07-26T12:52:02.120Z,18.98
2017-07-26T12:53:02.113Z,18.99
2017-07-26T12:54:02.097Z,19
2017-07-26T12:55:02.960Z,19.09
2017-07-26T12:56:01.816Z,19.08